Flight Track Log - Related Links

Times and Time Zones

All times are in EDT time to prevent confusion due to time zone crossing. See the SWA826 flight status page for this flight to view local times or setup timezone preferences in your user account.

Time Position Orientation Groundspeed Altitude Reporting Facility
EDT Latitude Longitude Course Direction KTS MPH feet Rate Location/Type
Sun 10:08:29 AM 32.8333 -96.8333 128° Southeast 144 166 1,800  Level Dallas / Fort Worth TRACON
Sun 10:09:41 AM 32.8000 -96.7833 128° Southeast 204 235 4,200 2,097 Climbing Dallas / Fort Worth TRACON
Sun 10:10:12 AM 32.7753 -96.7600 142° Southeast 197 227 5,400 1,826 Climbing Fort Worth Center
Sun 10:11:13 AM 32.7164 -96.7647 184° South 213 245 7,000 1,463 Climbing Fort Worth Center
Sun 10:12:15 AM 32.6450 -96.7758 187° South 242 278 8,400 1,707 Climbing Fort Worth Center
Sun 10:13:16 AM 32.6086 -96.8458 238° Southwest 290 334 10,500 2,488 Climbing Fort Worth Center
Sun 10:14:18 AM 32.6217 -96.9531 278° West 317 365 13,500 2,732 Climbing Fort Worth Center
Sun 10:15:19 AM 32.6364 -97.0600 279° West 330 380 16,100 2,878 Climbing Fort Worth Center
Sun 10:16:21 AM 32.6517 -97.1722 279° West 343 395 19,400 2,976 Climbing Fort Worth Center
Sun 10:17:22 AM 32.6675 -97.2936 279° West 343 395 22,200 2,439 Climbing Fort Worth Center
Sun 10:18:24 AM 32.6831 -97.4111 279° West 354 407 24,400 2,146 Climbing Fort Worth Center
Sun 10:19:25 AM 32.7003 -97.5328 280° West 368 423 26,600 1,902 Climbing Fort Worth Center
Sun 10:20:27 AM 32.7161 -97.6592 279° West 380 437 28,300 1,597 Climbing Fort Worth Center
Sun 10:21:29 AM 32.7283 -97.7897 276° West 394 453 29,900 1,610 Climbing Fort Worth Center
Sun 10:22:30 AM 32.7264 -97.9233 269° West 402 463 31,600 1,707 Climbing Fort Worth Center
Sun 10:23:32 AM 32.7211 -98.0569 267° West 403 464 33,400 1,839 Climbing Fort Worth Center
Sun 10:24:34 AM 32.7031 -98.1853 261° West 398 458 35,400 1,268 Climbing Fort Worth Center
Sun 10:25:35 AM 32.6881 -98.3111 262° West 388 447 36,000 293 Climbing Fort Worth Center
Sun 10:26:37 AM 32.6681 -98.4611 261° West 401 461 36,000  Level Fort Worth Center
Sun 10:27:39 AM 32.6525 -98.5897 262° West 399 459 36,000  Level Fort Worth Center
Sun 10:28:40 AM 32.6356 -98.7178 261° West 395 455 36,000  Level Fort Worth Center
Sun 10:29:42 AM 32.6197 -98.8461 262° West 394 453 36,000  Level Fort Worth Center
Sun 10:30:44 AM 32.6025 -98.9733 261° West 394 453 36,000  Level Fort Worth Center
Sun 10:31:45 AM 32.5861 -99.1019 261° West 394 453 36,000  Level Fort Worth Center
Sun 10:32:47 AM 32.5647 -99.2544 261° West 392 451 36,000  Level Fort Worth Center
Sun 10:33:49 AM 32.5472 -99.3817 261° West 392 451 36,000  Level Fort Worth Center
Sun 10:34:50 AM 32.5286 -99.5075 260° West 390 449 36,000  Level Fort Worth Center
Sun 10:35:52 AM 32.5117 -99.6364 261° West 390 449 36,000  Level Fort Worth Center
Sun 10:36:54 AM 32.4939 -99.7650 261° West 390 449 36,000  Level Fort Worth Center
Sun 10:37:55 AM 32.4772 -99.8944 261° West 389 448 36,000  Level Fort Worth Center
Sun 10:38:57 AM 32.4664 -100.0247 264° West 392 451 36,000  Level Fort Worth Center
Sun 10:39:59 AM 32.4547 -100.1547 264° West 392 451 36,000  Level Fort Worth Center
Sun 10:41:01 AM 32.4422 -100.2844 264° West 393 452 36,000  Level Fort Worth Center
Sun 10:42:02 AM 32.4311 -100.4136 264° West 396 456 36,000  Level Fort Worth Center
Sun 10:43:04 AM 32.4192 -100.5414 264° West 394 453 36,000  Level Fort Worth Center
Sun 10:44:06 AM 32.4044 -100.6958 264° West 395 455 36,000  Level Fort Worth Center
Sun 10:45:08 AM 32.3936 -100.8250 264° West 395 455 36,000  Level Fort Worth Center
Sun 10:46:09 AM 32.3806 -100.9525 263° West 394 453 36,000  Level Fort Worth Center
Sun 10:47:11 AM 32.3675 -101.0811 263° West 394 453 36,000  Level Fort Worth Center
Sun 10:48:13 AM 32.3550 -101.2097 263° West 394 453 36,000  Level Fort Worth Center
Sun 10:49:15 AM 32.3397 -101.3383 262° West 393 452 36,000  Level Fort Worth Center
Sun 10:50:17 AM 32.3250 -101.4675 262° West 394 453 36,000  Level Fort Worth Center
Sun 10:51:18 AM 32.3136 -101.5961 264° West 394 453 36,000  Level Fort Worth Center
Sun 10:52:20 AM 32.2956 -101.7511 262° West 394 453 36,000  Level Fort Worth Center
Sun 10:53:22 AM 32.2839 -101.8786 264° West 394 453 36,000  Level Fort Worth Center
Sun 10:54:24 AM 32.2700 -102.0078 263° West 394 453 36,000  Level Fort Worth Center
Sun 10:55:25 AM 32.2550 -102.1375 262° West 394 453 36,000  Level Fort Worth Center
Sun 10:56:27 AM 32.2408 -102.2672 263° West 394 453 36,000  Level Fort Worth Center
Sun 10:57:29 AM 32.2264 -102.3969 263° West 395 455 36,000  Level Fort Worth Center
Sun 10:58:31 AM 32.2125 -102.5256 263° West 394 453 36,000  Level Fort Worth Center
Sun 10:59:33 AM 32.1981 -102.6544 262° West 394 453 36,000  Level Fort Worth Center
Sun 11:00:35 AM 32.1836 -102.7822 262° West 393 452 36,000  Level Fort Worth Center
Sun 11:01:37 AM 32.1658 -102.9347 262° West 392 451 36,000  Level Fort Worth Center
Sun 11:02:39 AM 32.1517 -103.0611 262° West 392 451 36,000  Level Fort Worth Center
Sun 11:03:40 AM 32.1367 -103.1903 262° West 392 451 36,000  Level Fort Worth Center
Sun 11:04:42 AM 32.1214 -103.3175 262° West 392 451 36,000  Level Fort Worth Center
Sun 11:05:44 AM 32.1058 -103.4453 262° West 393 452 36,000  Level Fort Worth Center
Sun 11:06:46 AM 32.0903 -103.5717 262° West 393 452 36,000  Level Fort Worth Center
Sun 11:07:48 AM 32.0747 -103.7006 262° West 393 452 36,000  Level Fort Worth Center
Sun 11:08:52 AM 32.0561 -103.8533 262° West 396 456 36,000  Level Albuquerque Center
Sun 11:09:54 AM 32.0392 -103.9808 261° West 396 456 36,000 -435 Level Albuquerque Center
Sun 11:10:56 AM 32.0228 -104.1100 262° West 396 456 35,100 -919 Descending Albuquerque Center
Sun 11:11:58 AM 32.0092 -104.2350 263° West 392 451 34,100 -968 Descending Albuquerque Center
Sun 11:13:00 AM 31.9906 -104.3603 260° West 391 450 33,100 -1,016 Descending Albuquerque Center
Sun 11:14:02 AM 31.9733 -104.5114 262° West 391 450 32,000 -968 Descending Albuquerque Center
Sun 11:15:04 AM 31.9628 -104.6411 265° West 394 453 31,100 -919 Descending Albuquerque Center
Sun 11:16:06 AM 31.9453 -104.7819 262° West 404 465 30,100 -537 Descending Albuquerque Center
Sun 11:17:07 AM 31.9325 -104.9167 264° West 414 476 30,000 -976 Descending Albuquerque Center
Sun 11:18:09 AM 31.9203 -105.0475 264° West 410 472 28,100 -2,129 Descending Albuquerque Center
Sun 11:19:11 AM 31.9100 -105.1678 264° West 380 437 25,600 -2,323 Descending Albuquerque Center
Sun 11:20:13 AM 31.8992 -105.2828 264° West 362 417 23,300 -2,468 Descending Albuquerque Center
Sun 11:21:15 AM 31.8800 -105.4161 260° West 341 392 20,500 -2,473 Descending Albuquerque Center
Sun 11:22:24 AM 31.8731 -105.5367 266° West 318 366 17,900 -2,138 Descending Albuquerque Center
Sun 11:22:42 AM 31.8731 -105.5592 270° West 315 362 17,400 -1,964 Descending Albuquerque Center
Sun 11:23:19 AM 31.8733 -105.6214 270° West 313 360 16,100 -2,262 Descending Albuquerque Center
Sun 11:23:43 AM 31.8739 -105.6667 271° West 305 351 15,100 -2,129 Descending Albuquerque Center
Sun 11:24:21 AM 31.8728 -105.7269 269° West 299 344 13,900 -2,100 Descending Albuquerque Center
Sun 11:24:43 AM 31.8733 -105.7669 271° West 303 349 13,000 -2,226 Descending Albuquerque Center
Sun 11:25:23 AM 31.8728 -105.8294 269° West 310 357 11,600 -2,262 Descending Albuquerque Center
Sun 11:25:44 AM 31.8728 -105.8672 270° West 310 357 10,700 -1,548 Descending Albuquerque Center
Sun 11:26:25 AM 31.8717 -105.9319 269° West 296 341 10,000 -700 Descending Albuquerque Center
Sun 11:26:44 AM 31.8700 -105.9556 265° West 266 306 10,000 -677 Level Albuquerque Center
Sun 11:27:27 AM 31.8678 -106.0075 267° West 235 270 9,300 -1,180 Descending Albuquerque Center
Sun 11:27:45 AM 31.8669 -106.0314 268° West 226 260 8,800 -1,452 Descending Albuquerque Center
Sun 11:28:29 AM 31.8658 -106.0914 269° West 235 270 7,800 -1,574 Descending Albuquerque Center
Sun 11:28:46 AM 31.8642 -106.1097 264° West 241 277 7,200 -1,839 Descending Albuquerque Center
Sun 11:29:31 AM 31.8631 -106.1753 269° West 253 291 5,900 -1,700 Descending Albuquerque Center
Sun 11:29:46 AM 31.8628 -106.1953 269° West 262 302 5,500 -581 Descending Albuquerque Center
Sun 11:30:33 AM 31.8594 -106.2633 267° West 254 292 5,300 -197 Descending Albuquerque Center
Sun 11:30:47 AM 31.8592 -106.2811 269° West 247 284 5,300 -290 Level Albuquerque Center
Sun 11:31:35 AM 31.8528 -106.3264 261° West 195 224 5,000 -492 Descending Albuquerque Center
Sun 11:31:48 AM 31.8475 -106.3342 231° Southwest 149 171 4,800 -774 Descending Albuquerque Center
Sun 11:32:37 AM 31.8258 -106.3633 229° Southwest 144 166 4,200 -735 Descending Albuquerque Center
Sun 11:34:00 AM 31.8000 -106.3667 270° West  Level FlightAware Approximate
Sun 11:41:00 AM 31.8072 -106.3764 270° West  Level Estimated
Sun 11:42:00 AM 31.8072 -106.3764 270° West  Level Estimated
Sun 11:43:00 AM 31.8072 -106.3764 270° West  Level Estimated
Sun 11:44:00 AM 31.8072 -106.3764 270° West  Level Estimated
Sun 11:45:00 AM 31.8072 -106.3764 270° West  Level Estimated

Login

Don't have an account? Register now (free) for customized features, flight alerts, and more!